sensor_id;sensor_type;location;lat;lon;timestamp;P1;durP1;ratioP1;P2;durP2;ratioP2
2866;SDS011;1441;48.886;8.728;2023-11-25T00:01:47;1.17;;;0.70;;
2866;SDS011;1441;48.886;8.728;2023-11-25T00:04:12;4.43;;;0.80;;
2866;SDS011;1441;48.886;8.728;2023-11-25T00:06:38;3.07;;;0.73;;
2866;SDS011;1441;48.886;8.728;2023-11-25T00:09:04;6.10;;;0.87;;
2866;SDS011;1441;48.886;8.728;2023-11-25T00:11:29;7.50;;;0.97;;
2866;SDS011;1441;48.886;8.728;2023-11-25T00:13:55;2.17;;;0.70;;
2866;SDS011;1441;48.886;8.728;2023-11-25T00:16:21;2.93;;;0.90;;
2866;SDS011;1441;48.886;8.728;2023-11-25T00:18:46;1.90;;;0.60;;
2866;SDS011;1441;48.886;8.728;2023-11-25T00:21:13;2.90;;;0.70;;
2866;SDS011;1441;48.886;8.728;2023-11-25T00:23:38;2.23;;;0.80;;
2866;SDS011;1441;48.886;8.728;2023-11-25T00:26:04;6.23;;;1.30;;
2866;SDS011;1441;48.886;8.728;2023-11-25T00:28:29;2.97;;;0.90;;
2866;SDS011;1441;48.886;8.728;2023-11-25T00:30:56;7.20;;;0.70;;
2866;SDS011;1441;48.886;8.728;2023-11-25T00:33:21;2.30;;;0.70;;
2866;SDS011;1441;48.886;8.728;2023-11-25T00:35:47;1.73;;;0.70;;
2866;SDS011;1441;48.886;8.728;2023-11-25T00:38:13;0.97;;;0.60;;
2866;SDS011;1441;48.886;8.728;2023-11-25T00:40:39;5.53;;;0.50;;
2866;SDS011;1441;48.886;8.728;2023-11-25T00:43:04;3.00;;;0.60;;
2866;SDS011;1441;48.886;8.728;2023-11-25T00:45:31;2.57;;;0.60;;
2866;SDS011;1441;48.886;8.728;2023-11-25T00:47:57;11.93;;;0.93;;
2866;SDS011;1441;48.886;8.728;2023-11-25T00:50:23;2.00;;;0.83;;
2866;SDS011;1441;48.886;8.728;2023-11-25T00:52:50;2.57;;;0.60;;
2866;SDS011;1441;48.886;8.728;2023-11-25T00:55:15;1.00;;;0.60;;
2866;SDS011;1441;48.886;8.728;2023-11-25T00:57:41;0.90;;;0.60;;
2866;SDS011;1441;48.886;8.728;2023-11-25T01:00:07;2.00;;;0.80;;
2866;SDS011;1441;48.886;8.728;2023-11-25T01:02:40;5.77;;;0.63;;
2866;SDS011;1441;48.886;8.728;2023-11-25T01:05:07;2.50;;;0.80;;
2866;SDS011;1441;48.886;8.728;2023-11-25T01:07:33;3.90;;;0.83;;
2866;SDS011;1441;48.886;8.728;2023-11-25T01:09:58;3.13;;;0.60;;
2866;SDS011;1441;48.886;8.728;2023-11-25T01:12:24;1.90;;;0.60;;
2866;SDS011;1441;48.886;8.728;2023-11-25T01:14:49;2.93;;;0.73;;
2866;SDS011;1441;48.886;8.728;2023-11-25T01:17:15;1.27;;;0.60;;
2866;SDS011;1441;48.886;8.728;2023-11-25T01:19:40;1.90;;;0.50;;
2866;SDS011;1441;48.886;8.728;2023-11-25T01:22:06;5.10;;;0.90;;
2866;SDS011;1441;48.886;8.728;2023-11-25T01:24:31;1.33;;;0.50;;
2866;SDS011;1441;48.886;8.728;2023-11-25T01:26:57;1.83;;;0.67;;
2866;SDS011;1441;48.886;8.728;2023-11-25T01:29:23;2.20;;;0.60;;
2866;SDS011;1441;48.886;8.728;2023-11-25T01:31:48;2.67;;;0.70;;
2866;SDS011;1441;48.886;8.728;2023-11-25T01:34:14;0.73;;;0.67;;
2866;SDS011;1441;48.886;8.728;2023-11-25T01:36:39;1.80;;;0.60;;
2866;SDS011;1441;48.886;8.728;2023-11-25T01:39:05;2.07;;;0.63;;
2866;SDS011;1441;48.886;8.728;2023-11-25T01:41:31;1.53;;;1.13;;
2866;SDS011;1441;48.886;8.728;2023-11-25T01:43:56;5.23;;;1.00;;
2866;SDS011;1441;48.886;8.728;2023-11-25T01:46:29;2.30;;;0.70;;
2866;SDS011;1441;48.886;8.728;2023-11-25T01:49:01;4.10;;;0.80;;
2866;SDS011;1441;48.886;8.728;2023-11-25T01:51:27;1.47;;;0.70;;
2866;SDS011;1441;48.886;8.728;2023-11-25T01:53:53;3.03;;;0.67;;
2866;SDS011;1441;48.886;8.728;2023-11-25T01:56:19;1.80;;;0.50;;
2866;SDS011;1441;48.886;8.728;2023-11-25T01:58:45;1.50;;;0.60;;
2866;SDS011;1441;48.886;8.728;2023-11-25T02:01:11;2.07;;;0.87;;
2866;SDS011;1441;48.886;8.728;2023-11-25T02:03:37;2.00;;;0.70;;
2866;SDS011;1441;48.886;8.728;2023-11-25T02:06:02;4.83;;;0.60;;
2866;SDS011;1441;48.886;8.728;2023-11-25T02:08:28;4.03;;;0.70;;
2866;SDS011;1441;48.886;8.728;2023-11-25T02:10:53;2.30;;;0.70;;
2866;SDS011;1441;48.886;8.728;2023-11-25T02:13:19;1.53;;;0.70;;
2866;SDS011;1441;48.886;8.728;2023-11-25T02:15:45;2.83;;;0.73;;
2866;SDS011;1441;48.886;8.728;2023-11-25T02:18:10;2.37;;;0.70;;
2866;SDS011;1441;48.886;8.728;2023-11-25T02:20:37;2.23;;;0.67;;
2866;SDS011;1441;48.886;8.728;2023-11-25T02:23:14;2.43;;;0.87;;
2866;SDS011;1441;48.886;8.728;2023-11-25T02:25:45;5.23;;;0.80;;
2866;SDS011;1441;48.886;8.728;2023-11-25T02:28:12;1.47;;;0.70;;
2866;SDS011;1441;48.886;8.728;2023-11-25T02:30:39;2.00;;;0.77;;
2866;SDS011;1441;48.886;8.728;2023-11-25T02:33:04;3.80;;;1.00;;
2866;SDS011;1441;48.886;8.728;2023-11-25T02:35:32;1.57;;;0.60;;
2866;SDS011;1441;48.886;8.728;2023-11-25T02:37:57;2.20;;;0.80;;
2866;SDS011;1441;48.886;8.728;2023-11-25T02:40:23;4.13;;;0.80;;
2866;SDS011;1441;48.886;8.728;2023-11-25T02:42:49;2.73;;;0.80;;
2866;SDS011;1441;48.886;8.728;2023-11-25T02:45:18;9.37;;;1.00;;
2866;SDS011;1441;48.886;8.728;2023-11-25T02:47:46;1.37;;;0.80;;
2866;SDS011;1441;48.886;8.728;2023-11-25T02:50:12;2.30;;;1.07;;
2866;SDS011;1441;48.886;8.728;2023-11-25T02:52:38;3.23;;;0.87;;
2866;SDS011;1441;48.886;8.728;2023-11-25T02:55:05;5.10;;;0.97;;
2866;SDS011;1441;48.886;8.728;2023-11-25T02:57:32;1.43;;;0.80;;
2866;SDS011;1441;48.886;8.728;2023-11-25T02:59:58;10.47;;;1.10;;
2866;SDS011;1441;48.886;8.728;2023-11-25T03:02:35;2.30;;;0.90;;
2866;SDS011;1441;48.886;8.728;2023-11-25T03:05:00;2.20;;;0.90;;
2866;SDS011;1441;48.886;8.728;2023-11-25T03:07:26;2.03;;;0.70;;
2866;SDS011;1441;48.886;8.728;2023-11-25T03:09:54;13.37;;;0.90;;
2866;SDS011;1441;48.886;8.728;2023-11-25T03:12:20;1.30;;;0.80;;
2866;SDS011;1441;48.886;8.728;2023-11-25T03:14:47;5.70;;;1.10;;
2866;SDS011;1441;48.886;8.728;2023-11-25T03:17:13;6.10;;;1.30;;
2866;SDS011;1441;48.886;8.728;2023-11-25T03:19:38;2.27;;;0.70;;
2866;SDS011;1441;48.886;8.728;2023-11-25T03:22:04;3.90;;;0.90;;
2866;SDS011;1441;48.886;8.728;2023-11-25T03:24:29;4.73;;;1.00;;
2866;SDS011;1441;48.886;8.728;2023-11-25T03:26:55;3.47;;;1.07;;
2866;SDS011;1441;48.886;8.728;2023-11-25T03:29:23;3.53;;;0.93;;
2866;SDS011;1441;48.886;8.728;2023-11-25T03:31:49;5.40;;;0.90;;
2866;SDS011;1441;48.886;8.728;2023-11-25T03:34:16;4.00;;;1.17;;
2866;SDS011;1441;48.886;8.728;2023-11-25T03:36:41;5.70;;;0.90;;
2866;SDS011;1441;48.886;8.728;2023-11-25T03:39:07;4.50;;;1.00;;
2866;SDS011;1441;48.886;8.728;2023-11-25T03:41:34;3.90;;;0.93;;
2866;SDS011;1441;48.886;8.728;2023-11-25T03:44:00;4.90;;;1.00;;
2866;SDS011;1441;48.886;8.728;2023-11-25T03:46:26;6.53;;;1.23;;
2866;SDS011;1441;48.886;8.728;2023-11-25T03:48:52;3.87;;;1.00;;
2866;SDS011;1441;48.886;8.728;2023-11-25T03:51:19;5.33;;;1.43;;
2866;SDS011;1441;48.886;8.728;2023-11-25T03:53:44;2.93;;;0.90;;
2866;SDS011;1441;48.886;8.728;2023-11-25T03:56:10;3.07;;;1.13;;
2866;SDS011;1441;48.886;8.728;2023-11-25T03:58:38;6.27;;;1.30;;
2866;SDS011;1441;48.886;8.728;2023-11-25T04:01:04;3.87;;;0.60;;
2866;SDS011;1441;48.886;8.728;2023-11-25T04:03:30;5.70;;;1.07;;
2866;SDS011;1441;48.886;8.728;2023-11-25T04:05:57;1.80;;;0.70;;
2866;SDS011;1441;48.886;8.728;2023-11-25T04:08:23;4.10;;;0.77;;
2866;SDS011;1441;48.886;8.728;2023-11-25T04:10:48;2.00;;;0.80;;
2866;SDS011;1441;48.886;8.728;2023-11-25T04:13:16;4.33;;;2.30;;
2866;SDS011;1441;48.886;8.728;2023-11-25T04:15:41;2.53;;;0.90;;
2866;SDS011;1441;48.886;8.728;2023-11-25T04:18:07;5.10;;;0.73;;
2866;SDS011;1441;48.886;8.728;2023-11-25T04:20:32;1.37;;;0.70;;
2866;SDS011;1441;48.886;8.728;2023-11-25T04:22:58;0.77;;;0.70;;
2866;SDS011;1441;48.886;8.728;2023-11-25T04:25:30;2.00;;;0.70;;
2866;SDS011;1441;48.886;8.728;2023-11-25T04:27:56;0.57;;;0.50;;
2866;SDS011;1441;48.886;8.728;2023-11-25T04:30:22;1.70;;;0.60;;
2866;SDS011;1441;48.886;8.728;2023-11-25T04:32:48;3.90;;;0.67;;
2866;SDS011;1441;48.886;8.728;2023-11-25T04:35:14;1.60;;;0.60;;
2866;SDS011;1441;48.886;8.728;2023-11-25T04:37:40;3.40;;;0.90;;
2866;SDS011;1441;48.886;8.728;2023-11-25T04:40:09;3.23;;;0.93;;
2866;SDS011;1441;48.886;8.728;2023-11-25T04:42:36;2.63;;;1.00;;
2866;SDS011;1441;48.886;8.728;2023-11-25T04:45:02;1.80;;;0.90;;
2866;SDS011;1441;48.886;8.728;2023-11-25T04:47:28;5.97;;;1.10;;
2866;SDS011;1441;48.886;8.728;2023-11-25T04:49:54;2.33;;;0.63;;
2866;SDS011;1441;48.886;8.728;2023-11-25T04:52:19;8.33;;;0.70;;
2866;SDS011;1441;48.886;8.728;2023-11-25T04:54:45;1.37;;;0.70;;
2866;SDS011;1441;48.886;8.728;2023-11-25T04:57:11;3.77;;;0.90;;
2866;SDS011;1441;48.886;8.728;2023-11-25T04:59:37;1.50;;;0.57;;
2866;SDS011;1441;48.886;8.728;2023-11-25T05:02:03;6.90;;;1.10;;
2866;SDS011;1441;48.886;8.728;2023-11-25T05:04:30;2.73;;;0.80;;
2866;SDS011;1441;48.886;8.728;2023-11-25T05:06:56;1.50;;;0.50;;
2866;SDS011;1441;48.886;8.728;2023-11-25T05:09:21;2.10;;;0.60;;
2866;SDS011;1441;48.886;8.728;2023-11-25T05:11:51;4.63;;;1.90;;
2866;SDS011;1441;48.886;8.728;2023-11-25T05:14:19;1.33;;;0.77;;
2866;SDS011;1441;48.886;8.728;2023-11-25T05:16:45;3.10;;;0.80;;
2866;SDS011;1441;48.886;8.728;2023-11-25T05:19:11;5.03;;;1.00;;
2866;SDS011;1441;48.886;8.728;2023-11-25T05:21:37;2.47;;;1.83;;
2866;SDS011;1441;48.886;8.728;2023-11-25T05:24:03;4.87;;;1.30;;
2866;SDS011;1441;48.886;8.728;2023-11-25T05:26:29;0.90;;;0.60;;
2866;SDS011;1441;48.886;8.728;2023-11-25T05:28:55;2.20;;;0.60;;
2866;SDS011;1441;48.886;8.728;2023-11-25T05:31:21;1.90;;;0.60;;
2866;SDS011;1441;48.886;8.728;2023-11-25T05:33:48;2.20;;;0.60;;
2866;SDS011;1441;48.886;8.728;2023-11-25T05:36:14;13.50;;;1.17;;
2866;SDS011;1441;48.886;8.728;2023-11-25T05:38:39;5.13;;;0.90;;
2866;SDS011;1441;48.886;8.728;2023-11-25T05:41:05;4.10;;;0.80;;
2866;SDS011;1441;48.886;8.728;2023-11-25T05:43:33;3.70;;;1.53;;
2866;SDS011;1441;48.886;8.728;2023-11-25T05:45:59;6.17;;;0.80;;
2866;SDS011;1441;48.886;8.728;2023-11-25T05:48:24;1.77;;;0.70;;
2866;SDS011;1441;48.886;8.728;2023-11-25T05:50:52;2.93;;;0.70;;
2866;SDS011;1441;48.886;8.728;2023-11-25T05:53:17;4.30;;;0.70;;
2866;SDS011;1441;48.886;8.728;2023-11-25T05:55:43;1.70;;;0.70;;
2866;SDS011;1441;48.886;8.728;2023-11-25T05:58:09;1.33;;;0.70;;
2866;SDS011;1441;48.886;8.728;2023-11-25T06:00:34;5.83;;;0.80;;
2866;SDS011;1441;48.886;8.728;2023-11-25T06:03:00;6.93;;;1.07;;
2866;SDS011;1441;48.886;8.728;2023-11-25T06:05:25;3.03;;;0.60;;
2866;SDS011;1441;48.886;8.728;2023-11-25T06:07:52;4.53;;;0.73;;
2866;SDS011;1441;48.886;8.728;2023-11-25T06:10:18;2.20;;;0.80;;
2866;SDS011;1441;48.886;8.728;2023-11-25T06:12:44;1.83;;;0.53;;
2866;SDS011;1441;48.886;8.728;2023-11-25T06:15:09;1.60;;;0.60;;
2866;SDS011;1441;48.886;8.728;2023-11-25T06:17:36;4.53;;;0.70;;
2866;SDS011;1441;48.886;8.728;2023-11-25T06:20:02;1.60;;;0.60;;
2866;SDS011;1441;48.886;8.728;2023-11-25T06:22:28;5.47;;;0.60;;
2866;SDS011;1441;48.886;8.728;2023-11-25T06:24:53;0.40;;;0.40;;
2866;SDS011;1441;48.886;8.728;2023-11-25T06:27:19;3.60;;;0.60;;
2866;SDS011;1441;48.886;8.728;2023-11-25T06:29:47;5.20;;;0.80;;
2866;SDS011;1441;48.886;8.728;2023-11-25T06:32:13;2.00;;;0.60;;
2866;SDS011;1441;48.886;8.728;2023-11-25T06:34:39;1.27;;;0.60;;
2866;SDS011;1441;48.886;8.728;2023-11-25T06:37:05;3.80;;;0.80;;
2866;SDS011;1441;48.886;8.728;2023-11-25T06:39:30;2.63;;;1.03;;
2866;SDS011;1441;48.886;8.728;2023-11-25T06:41:57;1.40;;;0.70;;
2866;SDS011;1441;48.886;8.728;2023-11-25T06:44:25;4.83;;;1.07;;
2866;SDS011;1441;48.886;8.728;2023-11-25T06:46:51;0.90;;;0.70;;
2866;SDS011;1441;48.886;8.728;2023-11-25T06:49:16;2.93;;;1.00;;
2866;SDS011;1441;48.886;8.728;2023-11-25T06:51:42;10.10;;;1.13;;
2866;SDS011;1441;48.886;8.728;2023-11-25T06:54:08;0.80;;;0.80;;
2866;SDS011;1441;48.886;8.728;2023-11-25T06:56:34;5.00;;;1.10;;
2866;SDS011;1441;48.886;8.728;2023-11-25T06:59:01;2.83;;;0.93;;
2866;SDS011;1441;48.886;8.728;2023-11-25T07:01:27;3.03;;;0.80;;
2866;SDS011;1441;48.886;8.728;2023-11-25T07:03:52;2.67;;;0.93;;
2866;SDS011;1441;48.886;8.728;2023-11-25T07:06:18;2.87;;;0.87;;
2866;SDS011;1441;48.886;8.728;2023-11-25T07:08:44;5.33;;;0.93;;
2866;SDS011;1441;48.886;8.728;2023-11-25T07:11:10;4.10;;;1.37;;
2866;SDS011;1441;48.886;8.728;2023-11-25T07:13:38;2.90;;;1.13;;
2866;SDS011;1441;48.886;8.728;2023-11-25T07:16:03;9.10;;;1.00;;
2866;SDS011;1441;48.886;8.728;2023-11-25T07:18:32;2.43;;;1.00;;
2866;SDS011;1441;48.886;8.728;2023-11-25T07:20:58;1.13;;;0.70;;
2866;SDS011;1441;48.886;8.728;2023-11-25T07:23:25;3.87;;;1.00;;
2866;SDS011;1441;48.886;8.728;2023-11-25T07:25:51;1.40;;;0.70;;
2866;SDS011;1441;48.886;8.728;2023-11-25T07:28:16;1.37;;;0.90;;
2866;SDS011;1441;48.886;8.728;2023-11-25T07:30:42;4.30;;;0.93;;
2866;SDS011;1441;48.886;8.728;2023-11-25T07:33:08;4.30;;;0.80;;
2866;SDS011;1441;48.886;8.728;2023-11-25T07:35:35;2.83;;;1.00;;
2866;SDS011;1441;48.886;8.728;2023-11-25T07:38:01;2.10;;;0.97;;
2866;SDS011;1441;48.886;8.728;2023-11-25T07:40:28;3.33;;;1.03;;
2866;SDS011;1441;48.886;8.728;2023-11-25T07:42:53;4.37;;;1.00;;
2866;SDS011;1441;48.886;8.728;2023-11-25T07:45:19;4.57;;;1.40;;
2866;SDS011;1441;48.886;8.728;2023-11-25T07:47:44;4.40;;;1.10;;
2866;SDS011;1441;48.886;8.728;2023-11-25T07:50:10;7.20;;;0.93;;
2866;SDS011;1441;48.886;8.728;2023-11-25T07:52:36;1.03;;;0.93;;
2866;SDS011;1441;48.886;8.728;2023-11-25T07:55:03;3.33;;;1.10;;
2866;SDS011;1441;48.886;8.728;2023-11-25T07:57:32;2.10;;;0.80;;
2866;SDS011;1441;48.886;8.728;2023-11-25T07:59:58;2.60;;;0.70;;
2866;SDS011;1441;48.886;8.728;2023-11-25T08:02:24;5.07;;;0.80;;
2866;SDS011;1441;48.886;8.728;2023-11-25T08:04:50;4.00;;;1.40;;
2866;SDS011;1441;48.886;8.728;2023-11-25T08:07:16;3.50;;;1.07;;
2866;SDS011;1441;48.886;8.728;2023-11-25T08:09:42;6.80;;;1.30;;
2866;SDS011;1441;48.886;8.728;2023-11-25T08:12:08;2.80;;;1.50;;
2866;SDS011;1441;48.886;8.728;2023-11-25T08:14:34;2.47;;;1.40;;
2866;SDS011;1441;48.886;8.728;2023-11-25T08:17:01;3.97;;;1.40;;
2866;SDS011;1441;48.886;8.728;2023-11-25T08:19:26;7.33;;;1.63;;
2866;SDS011;1441;48.886;8.728;2023-11-25T08:21:52;2.10;;;1.10;;
2866;SDS011;1441;48.886;8.728;2023-11-25T08:24:18;6.50;;;1.33;;
2866;SDS011;1441;48.886;8.728;2023-11-25T08:26:43;3.70;;;1.10;;
2866;SDS011;1441;48.886;8.728;2023-11-25T08:29:09;3.03;;;1.10;;
2866;SDS011;1441;48.886;8.728;2023-11-25T08:31:36;3.03;;;1.07;;
2866;SDS011;1441;48.886;8.728;2023-11-25T08:34:02;8.40;;;1.23;;
2866;SDS011;1441;48.886;8.728;2023-11-25T08:36:31;11.70;;;1.20;;
2866;SDS011;1441;48.886;8.728;2023-11-25T08:38:57;2.40;;;1.33;;
2866;SDS011;1441;48.886;8.728;2023-11-25T08:41:26;2.63;;;1.20;;
2866;SDS011;1441;48.886;8.728;2023-11-25T08:43:52;4.47;;;1.13;;
2866;SDS011;1441;48.886;8.728;2023-11-25T08:46:18;3.53;;;1.33;;
2866;SDS011;1441;48.886;8.728;2023-11-25T08:48:45;11.97;;;1.33;;
2866;SDS011;1441;48.886;8.728;2023-11-25T08:51:11;5.27;;;1.40;;
2866;SDS011;1441;48.886;8.728;2023-11-25T08:53:39;11.83;;;1.73;;
2866;SDS011;1441;48.886;8.728;2023-11-25T08:56:09;7.93;;;1.67;;
2866;SDS011;1441;48.886;8.728;2023-11-25T08:58:35;5.60;;;1.20;;
2866;SDS011;1441;48.886;8.728;2023-11-25T09:01:01;6.40;;;1.73;;
2866;SDS011;1441;48.886;8.728;2023-11-25T09:03:27;8.83;;;1.73;;
2866;SDS011;1441;48.886;8.728;2023-11-25T09:05:53;4.20;;;1.90;;
2866;SDS011;1441;48.886;8.728;2023-11-25T09:08:18;5.83;;;1.67;;
2866;SDS011;1441;48.886;8.728;2023-11-25T09:10:45;6.93;;;1.30;;
2866;SDS011;1441;48.886;8.728;2023-11-25T09:13:11;8.00;;;1.30;;
2866;SDS011;1441;48.886;8.728;2023-11-25T09:15:36;8.50;;;1.70;;
2866;SDS011;1441;48.886;8.728;2023-11-25T09:18:02;5.97;;;1.70;;
2866;SDS011;1441;48.886;8.728;2023-11-25T09:20:28;5.37;;;1.33;;
2866;SDS011;1441;48.886;8.728;2023-11-25T09:22:54;5.93;;;2.00;;
2866;SDS011;1441;48.886;8.728;2023-11-25T09:25:20;5.80;;;1.30;;
2866;SDS011;1441;48.886;8.728;2023-11-25T09:27:46;6.87;;;1.73;;
2866;SDS011;1441;48.886;8.728;2023-11-25T09:30:12;7.80;;;3.17;;
2866;SDS011;1441;48.886;8.728;2023-11-25T09:32:42;14.37;;;1.60;;
2866;SDS011;1441;48.886;8.728;2023-11-25T09:35:09;8.10;;;1.67;;
2866;SDS011;1441;48.886;8.728;2023-11-25T09:37:41;7.40;;;1.63;;
2866;SDS011;1441;48.886;8.728;2023-11-25T09:40:08;4.00;;;1.60;;
2866;SDS011;1441;48.886;8.728;2023-11-25T09:42:39;2.13;;;1.80;;
2866;SDS011;1441;48.886;8.728;2023-11-25T09:45:09;6.47;;;1.77;;
2866;SDS011;1441;48.886;8.728;2023-11-25T09:47:40;6.90;;;1.70;;
2866;SDS011;1441;48.886;8.728;2023-11-25T09:50:10;7.60;;;1.40;;
2866;SDS011;1441;48.886;8.728;2023-11-25T09:52:39;9.57;;;1.50;;
2866;SDS011;1441;48.886;8.728;2023-11-25T09:55:12;5.50;;;1.83;;
2866;SDS011;1441;48.886;8.728;2023-11-25T09:57:40;8.33;;;1.30;;
2866;SDS011;1441;48.886;8.728;2023-11-25T10:00:07;10.30;;;2.30;;
2866;SDS011;1441;48.886;8.728;2023-11-25T10:02:36;9.33;;;1.87;;
2866;SDS011;1441;48.886;8.728;2023-11-25T10:05:04;5.03;;;1.40;;
2866;SDS011;1441;48.886;8.728;2023-11-25T10:07:30;7.17;;;2.40;;
2866;SDS011;1441;48.886;8.728;2023-11-25T10:09:56;7.30;;;2.00;;
2866;SDS011;1441;48.886;8.728;2023-11-25T10:12:21;12.57;;;2.20;;
2866;SDS011;1441;48.886;8.728;2023-11-25T10:14:48;8.50;;;2.20;;
2866;SDS011;1441;48.886;8.728;2023-11-25T10:17:15;9.80;;;1.47;;
2866;SDS011;1441;48.886;8.728;2023-11-25T10:19:42;6.63;;;1.87;;
2866;SDS011;1441;48.886;8.728;2023-11-25T10:22:09;8.90;;;1.50;;
2866;SDS011;1441;48.886;8.728;2023-11-25T10:24:35;6.57;;;1.53;;
2866;SDS011;1441;48.886;8.728;2023-11-25T10:27:14;9.53;;;1.77;;
2866;SDS011;1441;48.886;8.728;2023-11-25T10:29:41;8.87;;;2.37;;
2866;SDS011;1441;48.886;8.728;2023-11-25T10:32:07;6.03;;;1.70;;
2866;SDS011;1441;48.886;8.728;2023-11-25T10:34:34;6.60;;;1.60;;
2866;SDS011;1441;48.886;8.728;2023-11-25T10:37:00;8.00;;;1.70;;
2866;SDS011;1441;48.886;8.728;2023-11-25T10:39:30;7.33;;;1.90;;
2866;SDS011;1441;48.886;8.728;2023-11-25T10:41:57;11.60;;;1.63;;
2866;SDS011;1441;48.886;8.728;2023-11-25T10:44:23;11.77;;;2.13;;
2866;SDS011;1441;48.886;8.728;2023-11-25T10:46:52;9.80;;;2.03;;
2866;SDS011;1441;48.886;8.728;2023-11-25T10:49:21;12.67;;;2.70;;
2866;SDS011;1441;48.886;8.728;2023-11-25T10:51:47;7.13;;;2.20;;
2866;SDS011;1441;48.886;8.728;2023-11-25T10:54:16;7.57;;;1.83;;
2866;SDS011;1441;48.886;8.728;2023-11-25T10:56:44;6.53;;;1.80;;
2866;SDS011;1441;48.886;8.728;2023-11-25T10:59:11;10.10;;;1.87;;
2866;SDS011;1441;48.886;8.728;2023-11-25T11:01:41;11.70;;;2.60;;
2866;SDS011;1441;48.886;8.728;2023-11-25T11:04:18;5.57;;;1.67;;
2866;SDS011;1441;48.886;8.728;2023-11-25T11:06:54;11.00;;;2.40;;
2866;SDS011;1441;48.886;8.728;2023-11-25T11:09:24;13.17;;;2.23;;
2866;SDS011;1441;48.886;8.728;2023-11-25T11:11:54;14.13;;;2.30;;
2866;SDS011;1441;48.886;8.728;2023-11-25T11:14:26;9.20;;;1.83;;
2866;SDS011;1441;48.886;8.728;2023-11-25T11:19:35;10.03;;;2.10;;
2866;SDS011;1441;48.886;8.728;2023-11-25T11:22:06;5.50;;;2.50;;
2866;SDS011;1441;48.886;8.728;2023-11-25T11:29:57;7.70;;;2.00;;
2866;SDS011;1441;48.886;8.728;2023-11-25T11:32:33;9.10;;;1.83;;
2866;SDS011;1441;48.886;8.728;2023-11-25T11:35:01;10.97;;;2.37;;
2866;SDS011;1441;48.886;8.728;2023-11-25T11:37:34;6.40;;;1.47;;
2866;SDS011;1441;48.886;8.728;2023-11-25T11:40:02;7.60;;;2.00;;
2866;SDS011;1441;48.886;8.728;2023-11-25T11:42:29;12.07;;;2.20;;
2866;SDS011;1441;48.886;8.728;2023-11-25T11:45:16;4.60;;;1.80;;
2866;SDS011;1441;48.886;8.728;2023-11-25T11:50:22;4.83;;;1.80;;
2866;SDS011;1441;48.886;8.728;2023-11-25T11:55:32;5.30;;;2.40;;
2866;SDS011;1441;48.886;8.728;2023-11-25T11:58:01;10.27;;;3.27;;
2866;SDS011;1441;48.886;8.728;2023-11-25T12:00:34;4.30;;;1.50;;
2866;SDS011;1441;48.886;8.728;2023-11-25T12:03:10;4.70;;;1.77;;
2866;SDS011;1441;48.886;8.728;2023-11-25T12:05:36;3.57;;;1.70;;
2866;SDS011;1441;48.886;8.728;2023-11-25T12:08:02;4.53;;;2.23;;
2866;SDS011;1441;48.886;8.728;2023-11-25T12:10:28;5.13;;;1.67;;
2866;SDS011;1441;48.886;8.728;2023-11-25T12:12:53;7.43;;;2.30;;
2866;SDS011;1441;48.886;8.728;2023-11-25T12:15:19;10.30;;;1.73;;
2866;SDS011;1441;48.886;8.728;2023-11-25T12:17:45;4.43;;;1.90;;
2866;SDS011;1441;48.886;8.728;2023-11-25T12:20:13;4.43;;;2.20;;
2866;SDS011;1441;48.886;8.728;2023-11-25T12:22:40;7.10;;;2.00;;
2866;SDS011;1441;48.886;8.728;2023-11-25T12:25:06;3.27;;;1.93;;
2866;SDS011;1441;48.886;8.728;2023-11-25T12:28:27;8.63;;;2.93;;
2866;SDS011;1441;48.886;8.728;2023-11-25T12:30:35;9.13;;;2.70;;
2866;SDS011;1441;48.886;8.728;2023-11-25T12:33:21;6.93;;;2.00;;
2866;SDS011;1441;48.886;8.728;2023-11-25T12:35:47;8.83;;;2.00;;
2866;SDS011;1441;48.886;8.728;2023-11-25T12:38:13;2.80;;;2.40;;
2866;SDS011;1441;48.886;8.728;2023-11-25T12:40:40;10.23;;;2.73;;
2866;SDS011;1441;48.886;8.728;2023-11-25T12:43:07;10.57;;;3.37;;
2866;SDS011;1441;48.886;8.728;2023-11-25T12:45:36;10.50;;;2.47;;
2866;SDS011;1441;48.886;8.728;2023-11-25T12:48:06;12.17;;;2.87;;
2866;SDS011;1441;48.886;8.728;2023-11-25T12:50:33;13.30;;;2.90;;
2866;SDS011;1441;48.886;8.728;2023-11-25T12:53:18;13.13;;;2.80;;
2866;SDS011;1441;48.886;8.728;2023-11-25T12:55:44;8.93;;;2.47;;
2866;SDS011;1441;48.886;8.728;2023-11-25T12:58:13;10.97;;;2.70;;
2866;SDS011;1441;48.886;8.728;2023-11-25T13:00:46;9.83;;;2.40;;
2866;SDS011;1441;48.886;8.728;2023-11-25T13:03:25;9.63;;;3.30;;
2866;SDS011;1441;48.886;8.728;2023-11-25T13:06:03;9.10;;;2.53;;
2866;SDS011;1441;48.886;8.728;2023-11-25T13:08:35;7.43;;;2.80;;
2866;SDS011;1441;48.886;8.728;2023-11-25T13:11:02;12.37;;;2.10;;
2866;SDS011;1441;48.886;8.728;2023-11-25T13:13:30;7.60;;;1.93;;
2866;SDS011;1441;48.886;8.728;2023-11-25T13:15:57;3.33;;;1.80;;
2866;SDS011;1441;48.886;8.728;2023-11-25T13:18:23;8.00;;;2.13;;
2866;SDS011;1441;48.886;8.728;2023-11-25T13:20:50;3.93;;;1.80;;
2866;SDS011;1441;48.886;8.728;2023-11-25T13:23:16;12.33;;;2.53;;
2866;SDS011;1441;48.886;8.728;2023-11-25T13:25:44;8.47;;;2.43;;
2866;SDS011;1441;48.886;8.728;2023-11-25T13:28:10;11.03;;;3.37;;
2866;SDS011;1441;48.886;8.728;2023-11-25T13:30:35;7.63;;;2.00;;
2866;SDS011;1441;48.886;8.728;2023-11-25T13:33:01;9.00;;;2.60;;
2866;SDS011;1441;48.886;8.728;2023-11-25T13:35:27;6.70;;;1.97;;
2866;SDS011;1441;48.886;8.728;2023-11-25T13:37:59;9.10;;;2.57;;
2866;SDS011;1441;48.886;8.728;2023-11-25T13:40:28;10.43;;;3.10;;
2866;SDS011;1441;48.886;8.728;2023-11-25T13:43:06;12.03;;;2.57;;
2866;SDS011;1441;48.886;8.728;2023-11-25T13:45:41;5.60;;;2.43;;
2866;SDS011;1441;48.886;8.728;2023-11-25T13:48:07;10.17;;;3.27;;
2866;SDS011;1441;48.886;8.728;2023-11-25T13:50:35;8.60;;;2.97;;
2866;SDS011;1441;48.886;8.728;2023-11-25T13:53:01;8.60;;;3.77;;
2866;SDS011;1441;48.886;8.728;2023-11-25T13:55:27;8.93;;;2.37;;
2866;SDS011;1441;48.886;8.728;2023-11-25T13:57:55;18.07;;;3.70;;
2866;SDS011;1441;48.886;8.728;2023-11-25T14:00:20;6.40;;;2.20;;
2866;SDS011;1441;48.886;8.728;2023-11-25T14:02:50;9.30;;;2.80;;
2866;SDS011;1441;48.886;8.728;2023-11-25T14:05:16;5.90;;;2.30;;
2866;SDS011;1441;48.886;8.728;2023-11-25T14:07:42;10.60;;;2.97;;
2866;SDS011;1441;48.886;8.728;2023-11-25T14:10:08;8.23;;;2.90;;
2866;SDS011;1441;48.886;8.728;2023-11-25T14:12:35;7.77;;;2.73;;
2866;SDS011;1441;48.886;8.728;2023-11-25T14:15:04;11.80;;;2.67;;
2866;SDS011;1441;48.886;8.728;2023-11-25T14:17:32;8.30;;;2.60;;
2866;SDS011;1441;48.886;8.728;2023-11-25T14:20:01;10.37;;;2.70;;
2866;SDS011;1441;48.886;8.728;2023-11-25T14:22:30;12.50;;;2.93;;
2866;SDS011;1441;48.886;8.728;2023-11-25T14:24:55;7.93;;;2.70;;
2866;SDS011;1441;48.886;8.728;2023-11-25T14:27:21;13.47;;;3.20;;
2866;SDS011;1441;48.886;8.728;2023-11-25T14:29:46;10.13;;;2.93;;
2866;SDS011;1441;48.886;8.728;2023-11-25T14:32:12;8.47;;;3.53;;
2866;SDS011;1441;48.886;8.728;2023-11-25T14:34:37;8.63;;;3.40;;
2866;SDS011;1441;48.886;8.728;2023-11-25T14:37:05;8.30;;;3.23;;
2866;SDS011;1441;48.886;8.728;2023-11-25T14:39:30;8.60;;;2.43;;
2866;SDS011;1441;48.886;8.728;2023-11-25T14:42:00;5.83;;;2.67;;
2866;SDS011;1441;48.886;8.728;2023-11-25T14:44:26;9.67;;;2.20;;
2866;SDS011;1441;48.886;8.728;2023-11-25T14:46:52;5.40;;;2.30;;
2866;SDS011;1441;48.886;8.728;2023-11-25T14:49:18;5.53;;;2.30;;
2866;SDS011;1441;48.886;8.728;2023-11-25T14:51:43;9.23;;;2.07;;
2866;SDS011;1441;48.886;8.728;2023-11-25T14:54:09;8.70;;;2.77;;
2866;SDS011;1441;48.886;8.728;2023-11-25T14:56:34;2.77;;;1.80;;
2866;SDS011;1441;48.886;8.728;2023-11-25T14:59:00;10.90;;;1.90;;
2866;SDS011;1441;48.886;8.728;2023-11-25T15:01:28;4.70;;;1.83;;
2866;SDS011;1441;48.886;8.728;2023-11-25T15:03:54;4.23;;;1.33;;
2866;SDS011;1441;48.886;8.728;2023-11-25T15:06:19;5.80;;;1.30;;
2866;SDS011;1441;48.886;8.728;2023-11-25T15:08:45;2.20;;;1.30;;
2866;SDS011;1441;48.886;8.728;2023-11-25T15:11:10;3.03;;;1.40;;
2866;SDS011;1441;48.886;8.728;2023-11-25T15:13:36;5.10;;;1.57;;
2866;SDS011;1441;48.886;8.728;2023-11-25T15:16:01;4.00;;;1.40;;
2866;SDS011;1441;48.886;8.728;2023-11-25T15:18:28;5.20;;;1.40;;
2866;SDS011;1441;48.886;8.728;2023-11-25T15:20:53;2.60;;;1.40;;
2866;SDS011;1441;48.886;8.728;2023-11-25T15:23:19;3.07;;;1.30;;
2866;SDS011;1441;48.886;8.728;2023-11-25T15:25:45;4.10;;;1.10;;
2866;SDS011;1441;48.886;8.728;2023-11-25T15:28:10;2.43;;;1.40;;